createdAt,value
2019-05-03T00:02:54.378Z,97130.67
2019-05-03T00:05:41.699Z,97135.53
2019-05-03T00:08:12.639Z,97131.08
2019-05-03T00:10:42.674Z,97145.27
2019-05-03T00:13:12.653Z,97142.91
2019-05-03T00:15:54.319Z,97147.10
2019-05-03T00:18:23.911Z,97143.18
2019-05-03T00:20:53.297Z,97141.78
2019-05-03T00:23:22.995Z,97139.69
2019-05-03T00:25:52.680Z,97143.63
2019-05-03T00:28:22.073Z,97140.94
2019-05-03T00:30:51.957Z,97146.09
2019-05-03T00:33:22.525Z,97144.25
2019-05-03T00:36:22.183Z,97143.06
2019-05-03T00:38:53.422Z,97141.32
2019-05-03T00:41:22.827Z,97141.76
2019-05-03T00:43:52.203Z,97142.59
2019-05-03T00:46:22.056Z,97149.91
2019-05-03T00:48:52.484Z,97150.08
2019-05-03T00:51:22.609Z,97146.37
2019-05-03T00:53:53.243Z,97148.17
2019-05-03T00:56:22.662Z,97147.72
2019-05-03T00:58:58.480Z,97148.00
2019-05-03T01:01:27.865Z,97140.96
2019-05-03T01:03:57.248Z,97148.95
2019-05-03T01:06:26.651Z,97154.70
2019-05-03T01:08:56.029Z,97151.92
2019-05-03T01:11:25.416Z,97149.23
2019-05-03T01:13:54.816Z,97146.88
2019-05-03T01:16:25.191Z,97148.44
2019-05-03T01:18:54.756Z,97147.97
2019-05-03T01:21:24.208Z,97152.92
2019-05-03T01:23:53.604Z,97152.38
2019-05-03T01:26:23.016Z,97160.55
2019-05-03T01:28:52.714Z,97155.72
2019-05-03T01:31:22.740Z,97161.66
2019-05-03T01:33:52.455Z,97159.70
2019-05-03T01:36:22.928Z,97160.96
2019-05-03T01:38:53.267Z,97165.66
2019-05-03T01:41:22.909Z,97171.05
2019-05-03T01:43:52.890Z,97168.36
2019-05-03T01:46:22.773Z,97168.74
2019-05-03T01:49:12.285Z,97167.80
2019-05-03T01:52:07.076Z,97162.48
2019-05-03T01:54:36.575Z,97161.67
2019-05-03T01:57:06.005Z,97161.53
2019-05-03T01:59:35.461Z,97164.23
2019-05-03T02:02:32.739Z,97165.11
2019-05-03T02:05:32.095Z,97165.11
2019-05-03T02:08:02.113Z,97167.94
2019-05-03T02:10:32.194Z,97166.76
2019-05-03T02:13:01.801Z,97173.59
2019-05-03T02:15:32.666Z,97162.38
2019-05-03T02:18:02.634Z,97166.13
2019-05-03T02:20:32.481Z,97170.80
2019-05-03T02:23:02.731Z,97168.98
2019-05-03T02:25:32.503Z,97167.73
2019-05-03T02:28:02.096Z,97166.20
2019-05-03T02:30:33.174Z,97165.80
2019-05-03T02:33:04.189Z,97159.47
2019-05-03T02:35:33.843Z,97169.69
2019-05-03T02:38:03.766Z,97152.17
2019-05-03T02:40:33.999Z,97162.95
2019-05-03T02:43:28.532Z,97161.19
2019-05-03T02:46:28.948Z,97161.19
2019-05-03T02:49:25.545Z,97173.73
2019-05-03T02:51:55.496Z,97164.20
2019-05-03T02:54:26.934Z,97160.02
2019-05-03T02:56:56.165Z,97163.27
2019-05-03T02:59:26.445Z,97161.59
2019-05-03T03:01:56.653Z,97163.67
2019-05-03T03:04:27.266Z,97160.09
2019-05-03T03:06:58.915Z,97162.73
2019-05-03T03:09:29.250Z,97168.04
2019-05-03T03:12:01.784Z,97157.33
2019-05-03T03:14:36.006Z,97168.10
2019-05-03T03:17:07.123Z,97160.01
2019-05-03T03:19:38.473Z,97168.34
2019-05-03T03:22:11.186Z,97161.84
2019-05-03T03:24:45.840Z,97160.88
2019-05-03T03:27:18.353Z,97162.15
2019-05-03T03:29:51.399Z,97162.15
2019-05-03T03:32:29.029Z,97154.30
2019-05-03T03:35:19.715Z,97157.30
2019-05-03T03:37:46.180Z,97155.98
2019-05-03T03:40:18.582Z,97155.35
2019-05-03T03:42:51.081Z,97157.17
2019-05-03T03:45:20.462Z,97160.09
2019-05-03T03:47:56.378Z,97157.48
2019-05-03T03:50:26.227Z,97167.55
2019-05-03T03:52:56.944Z,97158.67
2019-05-03T03:55:28.512Z,97156.06
2019-05-03T03:57:58.494Z,97165.73
2019-05-03T04:00:28.215Z,97163.42
2019-05-03T04:02:57.771Z,97171.77
2019-05-03T04:05:27.154Z,97170.80
2019-05-03T04:07:56.950Z,97173.36
2019-05-03T04:10:27.162Z,97176.05
2019-05-03T04:12:57.704Z,97178.48
2019-05-03T04:15:48.280Z,97178.16
2019-05-03T04:18:36.116Z,97179.22
2019-05-03T04:21:06.079Z,97188.46
2019-05-03T04:23:36.030Z,97192.09
2019-05-03T04:26:07.043Z,97203.20
2019-05-03T04:28:37.294Z,97191.72
2019-05-03T04:31:06.683Z,97201.94
2019-05-03T04:33:36.164Z,97201.94
2019-05-03T04:36:05.852Z,97206.80
2019-05-03T04:38:35.777Z,97209.66
2019-05-03T04:41:06.101Z,97213.83
2019-05-03T04:43:35.858Z,97213.36
2019-05-03T04:46:26.018Z,97213.36
2019-05-03T04:48:56.416Z,97216.25
2019-05-03T04:51:26.259Z,97215.94
2019-05-03T04:54:16.114Z,97220.47
2019-05-03T04:56:46.466Z,97223.34
2019-05-03T04:59:16.232Z,97234.05
2019-05-03T05:01:46.189Z,97234.05
2019-05-03T05:04:16.281Z,97237.30
2019-05-03T05:06:45.734Z,97254.63
2019-05-03T05:09:15.695Z,97252.81
2019-05-03T05:11:45.811Z,97248.33
2019-05-03T05:14:15.605Z,97255.49
2019-05-03T05:16:46.609Z,97257.30
2019-05-03T05:19:19.541Z,97256.12
2019-05-03T05:21:54.938Z,97256.12
2019-05-03T05:24:25.568Z,97255.04
2019-05-03T05:27:20.104Z,97278.66
2019-05-03T05:29:49.601Z,97271.12
2019-05-03T05:32:19.085Z,97277.31
2019-05-03T05:34:48.486Z,97278.33
2019-05-03T05:37:17.880Z,97282.38
2019-05-03T05:39:47.282Z,97284.59
2019-05-03T05:42:16.675Z,97295.37
2019-05-03T05:44:46.063Z,97280.31
2019-05-03T05:47:34.650Z,97288.23
2019-05-03T05:50:11.325Z,97295.22
2019-05-03T05:52:40.803Z,97292.50
2019-05-03T05:55:47.738Z,97297.60
2019-05-03T05:58:20.698Z,97308.63
2019-05-03T06:00:57.030Z,97308.63
2019-05-03T06:03:26.450Z,97311.03
2019-05-03T06:05:57.497Z,97298.55
2019-05-03T06:08:45.824Z,97310.63
2019-05-03T06:11:26.063Z,97310.63
2019-05-03T06:14:17.662Z,97308.97
2019-05-03T06:17:00.840Z,97325.83
2019-05-03T06:19:49.166Z,97319.30
2019-05-03T06:22:29.226Z,97317.02
2019-05-03T06:25:06.397Z,97313.14
2019-05-03T06:27:37.458Z,97316.95
2019-05-03T06:30:16.976Z,97316.95
2019-05-03T06:32:46.383Z,97321.00
2019-05-03T06:35:15.763Z,97328.57
2019-05-03T06:37:46.057Z,97322.81
2019-05-03T06:40:15.634Z,97333.44
2019-05-03T06:42:52.300Z,97333.44
2019-05-03T06:45:16.473Z,97333.02
2019-05-03T06:47:49.881Z,97333.02
2019-05-03T06:50:19.643Z,97332.86
2019-05-03T06:52:48.336Z,97332.13
2019-05-03T06:55:17.740Z,97332.13
2019-05-03T06:57:49.740Z,97340.00
2019-05-03T07:00:38.390Z,97345.61
2019-05-03T07:03:21.639Z,97346.59
2019-05-03T07:06:08.583Z,97344.88
2019-05-03T07:08:54.936Z,97356.56
2019-05-03T07:11:24.794Z,97346.71
2019-05-03T07:13:55.006Z,97346.71
2019-05-03T07:16:25.289Z,97351.34
2019-05-03T07:18:58.117Z,97370.70
2019-05-03T07:21:26.098Z,97371.15
2019-05-03T07:23:55.506Z,97371.15
2019-05-03T07:26:25.503Z,97386.36
2019-05-03T07:28:54.996Z,97391.28
2019-05-03T07:31:25.570Z,97391.28
2019-05-03T07:33:55.252Z,97384.92
2019-05-03T07:36:28.080Z,97386.91
2019-05-03T07:38:55.786Z,97408.98
2019-05-03T07:41:27.212Z,97389.49
2019-05-03T07:43:56.323Z,97390.54
2019-05-03T07:46:25.708Z,97393.91
2019-05-03T07:48:55.076Z,97388.30
2019-05-03T07:51:24.991Z,97388.30
2019-05-03T07:53:55.527Z,97397.55
2019-05-03T07:56:29.436Z,97388.87
2019-05-03T07:59:05.650Z,97388.87
2019-05-03T08:01:36.117Z,97389.45
2019-05-03T08:04:06.258Z,97391.23
2019-05-03T08:06:35.828Z,97391.23
2019-05-03T08:09:10.335Z,97388.16
2019-05-03T08:11:39.913Z,97388.16
2019-05-03T08:14:09.359Z,97390.43
2019-05-03T08:16:38.832Z,97385.11
2019-05-03T08:19:08.230Z,97401.05
2019-05-03T08:21:38.764Z,97401.05
2019-05-03T08:24:08.598Z,97386.50
2019-05-03T08:26:37.974Z,97392.42
2019-05-03T08:29:16.160Z,97385.34
2019-05-03T08:32:00.278Z,97394.30
2019-05-03T08:34:55.588Z,97394.11
2019-05-03T08:37:29.851Z,97394.78
2019-05-03T08:39:59.588Z,97393.09
2019-05-03T08:42:29.044Z,97396.31
2019-05-03T08:44:58.644Z,97407.20
2019-05-03T08:47:28.174Z,97402.58
2019-05-03T08:50:00.066Z,97400.42
2019-05-03T08:52:29.461Z,97399.66
2019-05-03T08:54:59.015Z,97393.23
2019-05-03T08:57:28.422Z,97393.21
2019-05-03T08:59:58.193Z,97401.61
2019-05-03T09:02:27.602Z,97392.91
2019-05-03T09:04:56.987Z,97400.02
2019-05-03T09:07:26.502Z,97399.56
2019-05-03T09:10:12.227Z,97394.00
2019-05-03T09:12:57.810Z,97386.35
2019-05-03T09:15:27.226Z,97385.93
2019-05-03T09:17:56.889Z,97384.40
2019-05-03T09:20:26.283Z,97387.31
2019-05-03T09:22:56.022Z,97373.83
2019-05-03T09:25:25.433Z,97379.63
2019-05-03T09:27:55.270Z,97376.52
2019-05-03T09:30:25.203Z,97381.26
2019-05-03T09:32:55.714Z,97386.53
2019-05-03T09:35:32.144Z,97379.75
2019-05-03T09:37:56.572Z,97388.05
2019-05-03T09:40:26.091Z,97380.72
2019-05-03T09:42:55.458Z,97383.76
2019-05-03T09:45:24.822Z,97385.09
2019-05-03T09:47:55.169Z,97375.50
2019-05-03T09:50:24.870Z,97380.29
2019-05-03T09:52:55.433Z,97378.53
2019-05-03T09:55:30.308Z,97379.55
2019-05-03T09:58:00.036Z,97372.66
2019-05-03T10:00:29.410Z,97372.11
2019-05-03T10:02:59.035Z,97373.95
2019-05-03T10:05:28.385Z,97384.23
2019-05-03T10:07:57.946Z,97383.19
2019-05-03T10:10:27.422Z,97382.44
2019-05-03T10:12:58.357Z,97387.91
2019-05-03T10:15:41.360Z,97379.05
2019-05-03T10:18:14.099Z,97375.94
2019-05-03T10:20:44.655Z,97375.91
2019-05-03T10:23:33.109Z,97387.20
2019-05-03T10:26:02.462Z,97388.03
2019-05-03T10:28:31.970Z,97400.25
2019-05-03T10:31:01.640Z,97391.57
2019-05-03T10:33:35.758Z,97382.66
2019-05-03T10:36:05.608Z,97387.67
2019-05-03T10:38:35.038Z,97385.73
2019-05-03T10:41:05.821Z,97380.59
2019-05-03T10:43:35.607Z,97389.09
2019-05-03T10:46:06.692Z,97382.64
2019-05-03T10:48:36.237Z,97390.62
2019-05-03T10:51:05.857Z,97390.38
2019-05-03T10:53:38.544Z,97379.70
2019-05-03T10:56:26.747Z,97382.72
2019-05-03T10:59:03.484Z,97370.31
2019-05-03T11:01:55.093Z,97379.66
2019-05-03T11:04:25.600Z,97376.36
2019-05-03T11:06:55.277Z,97374.66
2019-05-03T11:09:25.943Z,97369.21
2019-05-03T11:11:55.775Z,97371.05
2019-05-03T11:14:25.638Z,97367.53
2019-05-03T11:16:55.409Z,97368.76
2019-05-03T11:19:25.502Z,97366.34
2019-05-03T11:21:55.154Z,97364.95
2019-05-03T11:24:27.134Z,97356.97
2019-05-03T11:27:00.044Z,97359.48
2019-05-03T11:29:29.124Z,97358.62
2019-05-03T11:32:20.294Z,97359.88
2019-05-03T11:34:59.097Z,97357.05
2019-05-03T11:37:45.520Z,97362.56
2019-05-03T11:40:15.684Z,97356.91
2019-05-03T11:42:45.433Z,97358.41
2019-05-03T11:45:15.379Z,97370.52
2019-05-03T11:47:45.647Z,97366.02
2019-05-03T11:50:15.679Z,97355.53
2019-05-03T11:52:47.090Z,97349.03
2019-05-03T11:55:16.401Z,97347.73
2019-05-03T11:57:45.773Z,97344.23
2019-05-03T12:00:19.957Z,97354.45
2019-05-03T12:03:10.730Z,97355.03
2019-05-03T12:05:41.673Z,97356.16
2019-05-03T12:08:11.072Z,97347.56
2019-05-03T12:10:52.980Z,97353.64
2019-05-03T12:13:20.611Z,97356.85
2019-05-03T12:15:50.046Z,97357.05
2019-05-03T12:18:19.695Z,97366.83
2019-05-03T12:20:50.141Z,97355.66
2019-05-03T12:23:20.667Z,97355.09
2019-05-03T12:25:51.523Z,97354.19
2019-05-03T12:28:21.348Z,97351.52
2019-05-03T12:30:50.756Z,97361.00
2019-05-03T12:33:20.135Z,97348.47
2019-05-03T12:35:49.487Z,97355.10
2019-05-03T12:38:18.889Z,97354.28
2019-05-03T12:40:48.282Z,97350.11
2019-05-03T12:43:17.691Z,97355.27
2019-05-03T12:45:47.086Z,97357.16
2019-05-03T12:48:16.589Z,97350.23
2019-05-03T12:50:46.926Z,97344.99
2019-05-03T12:53:16.789Z,97350.50
2019-05-03T12:55:46.254Z,97349.41
2019-05-03T12:58:15.869Z,97342.94
2019-05-03T13:01:04.958Z,97337.31
2019-05-03T13:03:41.265Z,97337.36
2019-05-03T13:06:10.627Z,97338.53
2019-05-03T13:08:45.576Z,97334.69
2019-05-03T13:11:15.215Z,97344.58
2019-05-03T13:13:45.294Z,97336.02
2019-05-03T13:16:18.443Z,97339.47
2019-05-03T13:18:47.915Z,97337.06
2019-05-03T13:21:17.538Z,97345.83
2019-05-03T13:23:46.903Z,97341.66
2019-05-03T13:26:16.473Z,97340.44
2019-05-03T13:28:45.846Z,97336.38
2019-05-03T13:31:16.150Z,97339.97
2019-05-03T13:33:45.679Z,97334.47
2019-05-03T13:36:15.279Z,97340.74
2019-05-03T13:38:45.344Z,97330.81
2019-05-03T13:41:14.779Z,97334.21
2019-05-03T13:43:46.583Z,97330.18
2019-05-03T13:46:16.042Z,97326.13
2019-05-03T13:48:48.850Z,97321.70
2019-05-03T13:51:20.354Z,97320.30
2019-05-03T13:53:49.978Z,97322.36
2019-05-03T13:56:19.343Z,97317.20
2019-05-03T13:58:48.722Z,97322.69
2019-05-03T14:01:18.355Z,97314.30
2019-05-03T14:03:47.813Z,97307.70
2019-05-03T14:06:17.232Z,97307.43
2019-05-03T14:08:46.610Z,97303.78
2019-05-03T14:11:16.002Z,97305.71
2019-05-03T14:13:45.673Z,97310.28
2019-05-03T14:16:15.057Z,97308.97
2019-05-03T14:18:46.993Z,97308.41
2019-05-03T14:21:21.474Z,97312.08
2019-05-03T14:24:08.672Z,97306.17
2019-05-03T14:26:38.406Z,97309.79
2019-05-03T14:29:07.935Z,97309.02
2019-05-03T14:31:37.348Z,97311.27
2019-05-03T14:34:06.769Z,97306.84
2019-05-03T14:36:36.154Z,97317.77
2019-05-03T14:39:09.743Z,97316.74
2019-05-03T14:41:38.911Z,97314.91
2019-05-03T14:44:08.295Z,97314.34
2019-05-03T14:46:37.772Z,97316.38
2019-05-03T14:49:07.179Z,97314.59
2019-05-03T14:51:36.545Z,97313.08
2019-05-03T14:54:06.981Z,97306.64
2019-05-03T14:56:45.752Z,97307.70
2019-05-03T14:59:34.609Z,97314.42
2019-05-03T15:02:20.417Z,97324.24
2019-05-03T15:04:49.853Z,97323.27
2019-05-03T15:07:19.255Z,97307.50
2019-05-03T15:09:48.634Z,97310.31
2019-05-03T15:12:18.149Z,97304.21
2019-05-03T15:14:47.541Z,97317.90
2019-05-03T15:17:16.930Z,97310.21
2019-05-03T15:19:46.303Z,97316.80
2019-05-03T15:22:15.700Z,97309.62
2019-05-03T15:24:45.180Z,97321.84
2019-05-03T15:27:14.542Z,97295.86
2019-05-03T15:29:44.840Z,97292.75
2019-05-03T15:32:15.462Z,97292.38
2019-05-03T15:34:45.218Z,97293.55
2019-05-03T15:37:14.948Z,97295.80
2019-05-03T15:39:45.699Z,97295.14
2019-05-03T15:42:15.541Z,97298.77
2019-05-03T15:45:05.276Z,97302.97
2019-05-03T15:47:43.265Z,97305.81
2019-05-03T15:50:12.870Z,97309.38
2019-05-03T15:52:44.369Z,97306.75
2019-05-03T15:55:15.228Z,97308.78
2019-05-03T15:57:44.946Z,97291.40
2019-05-03T16:00:16.725Z,97289.72
2019-05-03T16:02:46.314Z,97294.56
2019-05-03T16:05:15.722Z,97283.05
2019-05-03T16:07:45.063Z,97283.68
2019-05-03T16:10:15.386Z,97286.78
2019-05-03T16:12:45.062Z,97288.00
2019-05-03T16:15:14.355Z,97287.48
2019-05-03T16:17:44.929Z,97276.12
2019-05-03T16:20:14.952Z,97278.15
2019-05-03T16:22:46.406Z,97274.66
2019-05-03T16:25:15.823Z,97285.14
2019-05-03T16:28:10.048Z,97284.59
2019-05-03T16:30:56.721Z,97290.91
2019-05-03T16:33:28.193Z,97286.27
2019-05-03T16:35:57.231Z,97278.63
2019-05-03T16:38:26.656Z,97275.72
2019-05-03T16:40:56.016Z,97276.25
2019-05-03T16:43:25.762Z,97276.80
2019-05-03T16:45:55.345Z,97272.95
2019-05-03T16:48:24.866Z,97273.08
2019-05-03T16:50:54.502Z,97271.39
2019-05-03T16:53:25.514Z,97277.02
2019-05-03T16:55:54.969Z,97271.61
2019-05-03T16:58:24.746Z,97269.41
2019-05-03T17:00:55.302Z,97266.66
2019-05-03T17:03:38.180Z,97260.74
2019-05-03T17:06:19.335Z,97267.73
2019-05-03T17:09:05.337Z,97261.42
2019-05-03T17:11:34.814Z,97267.91
2019-05-03T17:14:05.008Z,97265.42
2019-05-03T17:16:34.580Z,97270.56
2019-05-03T17:19:05.835Z,97273.00
2019-05-03T17:21:35.376Z,97274.28
2019-05-03T17:24:06.307Z,97272.27
2019-05-03T17:26:36.179Z,97282.38
2019-05-03T17:29:05.604Z,97278.58
2019-05-03T17:31:35.322Z,97276.45
2019-05-03T17:34:05.560Z,97276.09
2019-05-03T17:36:35.013Z,97278.25
2019-05-03T17:39:09.026Z,97271.58
2019-05-03T17:41:56.182Z,97270.47
2019-05-03T17:44:30.011Z,97278.39
2019-05-03T17:46:59.406Z,97287.03
2019-05-03T17:49:28.823Z,97289.57
2019-05-03T17:52:20.382Z,97285.20
2019-05-03T17:55:08.725Z,97284.86
2019-05-03T17:57:57.058Z,97293.08
2019-05-03T18:00:36.187Z,97296.66
2019-05-03T18:03:06.750Z,97296.67
2019-05-03T18:05:44.989Z,97298.97
2019-05-03T18:08:30.783Z,97299.30
2019-05-03T18:11:06.719Z,97301.52
2019-05-03T18:13:36.214Z,97305.83
2019-05-03T18:16:08.797Z,97305.53
2019-05-03T18:18:38.183Z,97297.50
2019-05-03T18:21:07.604Z,97303.09
2019-05-03T18:23:36.973Z,97304.61
2019-05-03T18:26:06.412Z,97309.30
2019-05-03T18:28:35.827Z,97311.60
2019-05-03T18:31:08.564Z,97310.39
2019-05-03T18:33:36.682Z,97314.20
2019-05-03T18:36:06.056Z,97316.21
2019-05-03T18:38:39.829Z,97320.50
2019-05-03T18:41:11.433Z,97314.39
2019-05-03T18:43:59.761Z,97321.75
2019-05-03T18:46:40.050Z,97317.66
2019-05-03T18:49:09.426Z,97318.30
2019-05-03T18:51:39.019Z,97321.22
2019-05-03T18:54:08.397Z,97325.50
2019-05-03T18:56:37.779Z,97323.61
2019-05-03T18:59:07.530Z,97328.86
2019-05-03T19:01:37.065Z,97329.98
2019-05-03T19:04:15.096Z,97331.55
2019-05-03T19:06:45.173Z,97339.09
2019-05-03T19:09:34.517Z,97339.64
2019-05-03T19:12:21.966Z,97343.05
2019-05-03T19:14:51.423Z,97345.66
2019-05-03T19:17:30.847Z,97350.83
2019-05-03T19:20:00.384Z,97348.27
2019-05-03T19:22:30.036Z,97344.81
2019-05-03T19:24:59.553Z,97343.60
2019-05-03T19:27:28.937Z,97348.25
2019-05-03T19:29:58.445Z,97352.93
2019-05-03T19:32:28.306Z,97345.77
2019-05-03T19:34:58.435Z,97350.61
2019-05-03T19:37:28.002Z,97350.59
2019-05-03T19:39:57.497Z,97348.64
2019-05-03T19:42:27.403Z,97350.59
2019-05-03T19:44:56.838Z,97351.89
2019-05-03T19:47:26.343Z,97356.81
2019-05-03T19:49:55.730Z,97351.47
2019-05-03T19:52:28.301Z,97353.16
2019-05-03T19:54:57.683Z,97348.53
2019-05-03T19:57:32.320Z,97353.11
2019-05-03T20:00:01.698Z,97351.30
2019-05-03T20:02:56.143Z,97350.97
2019-05-03T20:05:50.575Z,97356.30
2019-05-03T20:08:27.042Z,97362.29
2019-05-03T20:11:15.500Z,97364.06
2019-05-03T20:13:45.560Z,97357.18
2019-05-03T20:16:15.508Z,97354.17
2019-05-03T20:18:45.711Z,97353.45
2019-05-03T20:21:15.370Z,97352.52
2019-05-03T20:23:47.054Z,97353.00
2019-05-03T20:26:15.898Z,97350.67
2019-05-03T20:28:45.287Z,97353.31
2019-05-03T20:31:14.859Z,97354.72
2019-05-03T20:33:45.789Z,97349.41
2019-05-03T20:36:15.355Z,97346.37
2019-05-03T20:38:44.730Z,97351.05
2019-05-03T20:41:14.806Z,97349.48
2019-05-03T20:43:55.669Z,97342.13
2019-05-03T20:46:29.945Z,97353.11
2019-05-03T20:49:04.345Z,97347.53
2019-05-03T20:51:34.581Z,97358.41
2019-05-03T20:54:04.911Z,97346.73
2019-05-03T20:56:34.467Z,97346.50
2019-05-03T20:59:05.465Z,97342.10
2019-05-03T21:01:35.941Z,97341.63
2019-05-03T21:04:06.259Z,97345.08
2019-05-03T21:06:36.031Z,97350.23
2019-05-03T21:09:08.419Z,97341.00
2019-05-03T21:11:38.372Z,97342.34
2019-05-03T21:14:08.348Z,97340.73
2019-05-03T21:16:54.675Z,97341.08
2019-05-03T21:19:40.825Z,97341.63
2019-05-03T21:22:14.456Z,97338.74
2019-05-03T21:25:01.845Z,97340.33
2019-05-03T21:27:31.264Z,97337.91
2019-05-03T21:30:00.665Z,97338.50
2019-05-03T21:32:30.067Z,97338.86
2019-05-03T21:34:59.474Z,97339.98
2019-05-03T21:37:29.039Z,97325.79
2019-05-03T21:39:58.536Z,97325.79
2019-05-03T21:42:31.019Z,97334.05
2019-05-03T21:45:02.080Z,97335.19
2019-05-03T21:47:50.352Z,97335.19
2019-05-03T21:50:20.822Z,97332.67
2019-05-03T21:52:50.223Z,97333.37
2019-05-03T21:55:19.617Z,97333.37
2019-05-03T21:57:49.033Z,97333.55
2019-05-03T22:00:20.094Z,97341.02
2019-05-03T22:02:50.001Z,97341.02
2019-05-03T22:05:19.400Z,97334.25
2019-05-03T22:07:48.923Z,97334.25
2019-05-03T22:10:19.143Z,97334.94
2019-05-03T22:12:48.542Z,97336.35
2019-05-03T22:15:26.482Z,97336.35
2019-05-03T22:18:06.081Z,97317.48
2019-05-03T22:20:54.933Z,97317.48
2019-05-03T22:23:45.277Z,97326.80
2019-05-03T22:26:15.443Z,97329.11
2019-05-03T22:28:45.042Z,97329.11
2019-05-03T22:31:15.325Z,97323.98
2019-05-03T23:54:06.459Z,97239.53
2019-05-03T23:56:36.153Z,97238.05
2019-05-03T23:59:05.650Z,97229.13
